Time;durP1;ratioP1;P1;durP2;ratioP2;P2;SDS_P1;SDS_P2;PMS_P1;PMS_P2;Temp;Humidity;BMP_temperature;BMP_pressure;BME280_temperature;BME280_humidity;BME280_pressure;Samples;Min_cycle;Max_cycle;Signal;HPM_P1;HPM_P2
2022/09/28 04:35:19;;;;;;;6.78;3.92;;;;;;;7.30;100.00;97474.97;4558616;76;22835;-84
2022/09/28 04:41:22;;;;;;;8.90;5.20;;;;;;;7.11;100.00;97476.14;4506412;78;21022;-84
2022/09/28 04:47:24;;;;;;;6.05;4.08;;;;;;;7.09;100.00;97473.05;4454254;78;21052;-84
2022/09/28 04:53:27;;;;;;;7.97;4.50;;;;;;;7.06;100.00;97472.47;4469086;78;20983;-84
2022/09/28 04:59:28;;;;;;;10.32;4.40;;;;;;;6.98;100.00;97476.91;4452507;78;20988;-84
2022/09/28 05:05:30;;;;;;;5.80;3.72;;;;;;;7.00;100.00;97481.40;4457790;78;21562;-84
2022/09/28 05:11:34;;;;;;;7.12;4.55;;;;;;;6.90;100.00;97485.66;4441812;78;21025;-84
2022/09/28 05:17:35;;;;;;;7.95;5.22;;;;;;;6.83;100.00;97487.59;4366922;81;20969;-84
2022/09/28 05:23:46;;;;;;;7.62;5.55;;;;;;;6.97;100.00;97497.89;4263373;80;21076;-83
2022/09/28 05:29:48;;;;;;;9.00;5.23;;;;;;;7.10;100.00;97485.48;4186891;83;21004;-84
2022/09/28 05:35:54;;;;;;;7.63;4.07;;;;;;;7.20;100.00;97482.56;4280293;79;21210;-84
2022/09/28 05:41:56;;;;;;;8.88;5.10;;;;;;;7.34;100.00;97483.36;4253631;79;21025;-84
2022/09/28 05:47:58;;;;;;;8.08;4.80;;;;;;;7.54;100.00;97486.44;4303050;80;21006;-84
2022/09/28 05:53:59;;;;;;;9.13;4.55;;;;;;;7.69;100.00;97481.94;4316468;80;20976;-84
2022/09/28 06:00:07;;;;;;;5.95;4.30;;;;;;;7.91;100.00;97488.91;4307929;80;21059;-83
2022/09/28 06:06:11;;;;;;;8.38;4.50;;;;;;;8.24;100.00;97480.08;4306109;80;21051;-84
2022/09/28 06:12:14;;;;;;;9.15;2.83;;;;;;;8.55;100.00;97482.64;4299611;80;21053;-84
2022/09/28 06:18:22;;;;;;;6.58;3.30;;;;;;;8.69;100.00;97485.30;4296086;80;20976;-84
2022/09/28 06:24:37;;;;;;;4.50;2.80;;;;;;;9.30;100.00;97487.22;4310501;80;21035;-84
2022/09/28 06:30:40;;;;;;;6.80;2.35;;;;;;;9.57;100.00;97490.73;4319701;80;21036;-84
2022/09/28 06:36:44;;;;;;;5.45;2.37;;;;;;;9.75;100.00;97492.69;4328928;80;21039;-83
2022/09/28 06:43:08;;;;;;;5.30;2.25;;;;;;;10.09;100.00;97479.87;4326494;80;21006;-83
2022/09/28 06:49:29;;;;;;;1.95;1.27;;;;;;;10.20;100.00;97462.75;4323836;80;21058;-83
2022/09/28 06:55:33;;;;;;;3.20;1.22;;;;;;;10.32;100.00;97469.83;4324689;80;20996;-84
2022/09/28 07:01:36;;;;;;;2.37;1.42;;;;;;;10.51;100.00;97458.84;4352657;80;20996;-84
2022/09/28 07:07:43;;;;;;;1.98;1.12;;;;;;;10.58;100.00;97475.17;4349255;80;20995;-84
2022/09/28 07:13:45;;;;;;;2.00;0.78;;;;;;;10.74;100.00;97491.78;4322990;80;21008;-84
2022/09/28 07:19:51;;;;;;;3.42;0.80;;;;;;;10.89;100.00;97489.02;4310759;80;21560;-84
2022/09/28 07:25:50;;;;;;;4.17;0.80;;;;;;;10.92;100.00;97478.61;4331066;80;20998;-83
2022/09/28 07:32:08;;;;;;;1.70;0.60;;;;;;;11.18;100.00;97492.91;4318148;80;21445;-83
2022/09/28 07:38:18;;;;;;;3.35;0.72;;;;;;;11.55;100.00;97485.84;4325422;80;21436;-83
2022/09/28 07:44:19;;;;;;;0.93;0.50;;;;;;;11.88;100.00;97484.13;4328939;80;21059;-84
2022/09/28 07:50:22;;;;;;;1.32;0.75;;;;;;;12.07;100.00;97496.52;4318362;80;21059;-84
2022/09/28 07:56:33;;;;;;;5.62;1.10;;;;;;;12.64;100.00;97494.19;4324703;80;20980;-84
2022/09/28 08:02:36;;;;;;;2.52;0.80;;;;;;;12.64;99.85;97494.77;4335361;80;21044;-84
2022/09/28 08:08:44;;;;;;;0.93;0.60;;;;;;;12.44;99.08;97493.42;4328853;80;21053;-84
2022/09/28 08:14:43;;;;;;;1.47;0.80;;;;;;;12.33;98.07;97495.61;4048749;82;50497;-83
2022/09/28 08:27:16;;;;;;;1.50;0.70;;;;;;;12.60;98.34;97495.45;3878101;87;21130;-84
2022/09/28 08:33:22;;;;;;;0.37;0.37;;;;;;;13.24;96.86;97481.89;3885966;89;21099;-84
2022/09/28 08:39:23;;;;;;;2.90;0.37;;;;;;;14.20;96.29;97482.41;3890782;90;21050;-84
2022/09/28 08:45:34;;;;;;;0.60;0.40;;;;;;;14.17;94.19;97480.52;3872702;90;21046;-83
2022/09/28 08:51:48;;;;;;;1.35;0.65;;;;;;;15.33;94.26;97476.48;3812588;91;22177;-84
2022/09/28 08:58:14;;;;;;;0.80;0.30;;;;;;;16.49;92.21;97468.41;3949801;87;21594;-84
2022/09/28 09:04:17;;;;;;;0.88;0.40;;;;;;;16.56;88.91;97475.08;3951653;88;21141;-83
2022/09/28 09:10:52;;;;;;;1.52;0.55;;;;;;;16.13;87.55;97471.50;3807136;88;21596;-84
2022/09/28 09:17:19;;;;;;;1.75;0.40;;;;;;;15.64;85.75;97473.33;3956645;88;21063;-83
2022/09/28 09:23:47;;;;;;;0.62;0.40;;;;;;;15.33;85.32;97466.84;3872674;90;21563;-84
2022/09/28 09:30:11;;;;;;;1.77;0.40;;;;;;;15.77;85.84;97476.69;3818149;91;21059;-84
2022/09/28 09:36:39;;;;;;;0.60;0.40;;;;;;;17.19;85.32;97471.25;3822406;92;21103;-84
2022/09/28 09:43:21;;;;;;;0.90;0.40;;;;;;;18.53;82.65;97477.53;3834282;91;21003;-84
2022/09/28 09:49:34;;;;;;;0.70;0.30;;;;;;;18.62;80.62;97483.05;3946957;88;21048;-84
2022/09/28 09:55:45;;;;;;;2.52;1.35;;;;;;;18.90;79.27;97476.86;3936602;88;21473;-85
2022/09/28 10:01:57;;;;;;;0.70;0.20;;;;;;;19.68;77.17;97473.94;3915342;88;21048;-85
2022/09/28 10:08:12;;;;;;;1.45;0.35;;;;;;;20.49;76.29;97458.08;3937181;88;21094;-85
2022/09/28 10:14:18;;;;;;;0.50;0.20;;;;;;;20.93;72.86;97456.70;3940268;88;21633;-84
2022/09/28 10:20:24;;;;;;;2.40;0.30;;;;;;;20.96;70.99;97445.42;3946544;88;21083;-85
2022/09/28 10:26:37;;;;;;;2.58;0.53;;;;;;;21.49;70.96;97452.19;3942295;88;21919;-85
2022/09/28 10:32:45;;;;;;;1.80;0.40;;;;;;;21.35;69.43;97446.03;3944463;88;20992;-84
2022/09/28 10:38:47;;;;;;;0.90;0.40;;;;;;;20.48;69.14;97442.66;3929718;90;21629;-85
2022/09/28 10:45:03;;;;;;;0.50;0.40;;;;;;;20.26;68.60;97437.29;3941294;88;21090;-84
2022/09/28 10:51:12;;;;;;;1.20;0.37;;;;;;;19.74;66.51;97440.12;3943267;88;21115;-84
2022/09/28 10:57:30;;;;;;;0.85;0.28;;;;;;;18.88;66.51;97421.70;3926295;88;21116;-84
2022/09/28 11:03:33;;;;;;;2.47;0.50;;;;;;;18.21;65.62;97419.20;3944738;88;21080;-84
2022/09/28 11:09:41;;;;;;;1.52;0.40;;;;;;;18.02;64.45;97409.36;3936690;88;21859;-84
2022/09/28 11:15:43;;;;;;;;;;;;;;;17.85;64.91;97397.84;3940487;88;21607;-85
2022/09/28 11:21:46;;;;;;;1.47;0.50;;;;;;;17.75;64.17;97382.44;3941785;88;20187;-84
2022/09/28 11:28:00;;;;;;;6.87;1.57;;;;;;;17.32;64.15;97385.41;3952193;88;21063;-84
2022/09/28 11:34:08;;;;;;;1.32;0.50;;;;;;;17.18;64.38;97374.93;3960039;88;21516;-84
2022/09/28 11:40:47;;;;;;;2.12;0.53;;;;;;;16.89;64.03;97371.17;3979358;88;21610;-83
2022/09/28 11:47:32;;;;;;;4.00;1.15;;;;;;;16.86;64.69;97364.40;3952233;87;21044;-84
2022/09/28 11:53:41;;;;;;;1.95;0.82;;;;;;;16.93;64.20;97354.42;3959252;85;21127;-85
2022/09/28 12:00:08;;;;;;;1.45;0.60;;;;;;;17.02;63.21;97349.70;3948129;88;21071;-84
2022/09/28 12:06:16;;;;;;;2.10;0.80;;;;;;;17.01;63.74;97345.41;3955278;87;21059;-84
2022/09/28 12:12:26;;;;;;;1.60;0.83;;;;;;;16.97;63.48;97345.40;3950497;88;21055;-84
2022/09/28 12:18:50;;;;;;;3.40;0.40;;;;;;;16.89;62.76;97334.47;3948756;88;21117;-84
2022/09/28 12:24:55;;;;;;;1.40;0.70;;;;;;;16.78;63.25;97318.32;3951278;87;21049;-83
2022/09/28 12:31:02;;;;;;;2.90;0.70;;;;;;;16.68;63.64;97330.55;3993994;86;21095;-83
2022/09/28 12:37:18;;;;;;;1.47;0.60;;;;;;;16.78;63.39;97312.80;3909083;89;21069;-84
2022/09/28 12:43:43;;;;;;;2.52;0.70;;;;;;;16.83;63.26;97312.20;3934272;88;21095;-83
2022/09/28 12:50:13;;;;;;;0.93;0.60;;;;;;;16.85;63.47;97306.22;3944140;89;21039;-83
2022/09/28 12:56:34;;;;;;;1.67;0.60;;;;;;;16.77;62.69;97294.66;3933015;88;21132;-83
2022/09/28 13:02:53;;;;;;;0.75;0.30;;;;;;;16.75;62.45;97290.83;3869182;90;21142;-83
2022/09/28 13:09:08;;;;;;;0.70;0.33;;;;;;;16.85;62.84;97296.55;3926451;89;21682;-83
2022/09/28 13:15:30;;;;;;;0.85;0.40;;;;;;;16.96;62.29;97291.36;3952032;88;21099;-83
2022/09/28 13:21:49;;;;;;;3.58;0.82;;;;;;;17.03;61.98;97297.36;3877422;90;22220;-83
2022/09/28 13:27:56;;;;;;;2.00;0.70;;;;;;;16.87;62.32;97289.33;4010522;87;21122;-83
2022/09/28 13:34:00;;;;;;;2.58;0.80;;;;;;;16.73;63.05;97294.05;3999375;87;21176;-83
2022/09/28 13:40:05;;;;;;;1.55;0.95;;;;;;;16.54;63.02;97291.66;3998975;87;21505;-83
2022/09/28 13:46:28;;;;;;;2.37;1.07;;;;;;;16.41;63.25;97278.55;3991792;87;21053;-83
2022/09/28 13:52:53;;;;;;;2.52;0.68;;;;;;;16.32;63.68;97274.38;3998915;87;21050;-83
2022/09/28 13:59:15;;;;;;;1.17;0.60;;;;;;;16.20;63.85;97298.09;4004871;87;21053;-84
2022/09/28 14:05:53;;;;;;;3.20;0.60;;;;;;;16.03;64.21;97296.77;4000108;87;21045;-85
2022/09/28 14:12:03;;;;;;;1.72;0.80;;;;;;;15.79;64.57;97294.91;4039784;87;21641;-82
2022/09/28 14:18:28;;;;;;;2.10;0.98;;;;;;;15.68;65.33;97301.44;3996949;87;21033;-83
2022/09/28 14:24:59;;;;;;;3.75;1.10;;;;;;;15.58;65.16;97292.33;4084485;83;32231;-82
2022/09/28 14:31:09;;;;;;;2.62;0.75;;;;;;;15.55;65.21;97285.70;4193076;83;21843;-83
2022/09/28 14:44:06;;;;;;;4.83;1.30;;;;;;;15.31;66.48;97276.30;4180756;83;21000;-82
2022/09/28 14:50:26;;;;;;;2.70;1.10;;;;;;;15.27;67.39;97277.02;4177626;83;20963;-83
2022/09/28 14:56:30;;;;;;;1.75;1.00;;;;;;;15.09;68.45;97272.73;4179878;83;21749;-82
2022/09/28 15:02:34;;;;;;;4.50;1.82;;;;;;;15.07;66.73;97264.73;4140294;84;21726;-82
2022/09/28 15:08:38;;;;;;;8.93;3.70;;;;;;;15.11;66.35;97260.64;4076326;85;21851;-82
2022/09/28 15:14:48;;;;;;;9.08;3.85;;;;;;;15.14;66.27;97276.91;4157819;84;21033;-83
2022/09/28 15:20:50;;;;;;;5.65;2.45;;;;;;;15.09;67.49;97267.83;4079108;86;21062;-83
2022/09/28 15:26:52;;;;;;;5.85;2.40;;;;;;;14.96;67.35;97274.75;4195855;82;21702;-84
2022/09/28 15:34:50;;;;;;;5.10;2.27;;;;;;;14.88;68.14;97272.06;4120137;84;21672;-82
2022/09/28 15:39:18;;;;;;;7.58;3.20;;;;;;;14.85;68.24;97280.44;4106547;84;21569;-82
2022/09/28 15:45:29;;;;;;;11.65;4.37;;;;;;;14.76;69.34;97270.70;4112840;84;21020;-84
2022/09/28 15:51:45;;;;;;;14.73;6.33;;;;;;;14.67;68.81;97281.03;4109173;84;21945;-83
2022/09/28 15:57:47;;;;;;;10.65;4.40;;;;;;;14.60;69.82;97276.34;4128103;84;21008;-83
2022/09/28 16:03:48;;;;;;;9.13;3.40;;;;;;;14.51;69.47;97277.62;4138626;84;20979;-83
2022/09/28 16:10:16;;;;;;;5.12;3.08;;;;;;;14.55;69.07;97270.78;4128233;84;21483;-83
2022/09/28 16:16:23;;;;;;;4.62;2.10;;;;;;;14.57;69.06;97270.34;4101943;84;21034;-82
2022/09/28 16:22:25;;;;;;;3.47;1.77;;;;;;;14.55;68.75;97263.90;4114621;84;21959;-82
2022/09/28 16:28:39;;;;;;;5.12;1.55;;;;;;;14.51;68.92;97267.38;4151183;83;20992;-83
2022/09/28 16:34:42;;;;;;;3.15;1.57;;;;;;;14.43;68.98;97279.05;4207657;83;20978;-83
2022/09/28 16:40:49;;;;;;;3.35;1.98;;;;;;;14.40;68.98;97277.96;4178951;84;21514;-83
2022/09/28 16:46:53;;;;;;;3.52;1.60;;;;;;;14.35;69.06;97281.25;4229223;82;21053;-83
2022/09/28 16:59:23;;;;;;;2.75;1.77;;;;;;;14.16;70.40;97280.83;4171554;84;21443;-82
2022/09/28 17:05:24;;;;;;;3.75;1.75;;;;;;;14.13;69.89;97281.70;4186920;83;21374;-83
2022/09/28 17:11:26;;;;;;;4.25;2.12;;;;;;;14.13;70.63;97283.08;4194461;82;21505;-82
2022/09/28 17:17:30;;;;;;;3.47;1.90;;;;;;;14.04;71.02;97276.88;4207395;83;20994;-82
2022/09/28 17:23:32;;;;;;;2.55;1.30;;;;;;;13.81;71.80;97282.64;4151545;85;21546;-82
2022/09/28 17:29:33;;;;;;;3.30;2.00;;;;;;;13.65;72.54;97297.86;4139446;84;21035;-82
2022/09/28 17:35:36;;;;;;;3.52;2.02;;;;;;;13.56;73.36;97301.81;4126723;85;20957;-82
2022/09/28 17:41:37;;;;;;;3.70;2.05;;;;;;;13.51;73.85;97296.88;4187945;85;21070;-82
2022/09/28 17:47:39;;;;;;;17.82;7.50;;;;;;;13.46;74.52;97295.24;4211206;82;20954;-82
2022/09/28 17:53:40;;;;;;;5.45;3.22;;;;;;;13.38;74.98;97300.16;4179757;83;21024;-82
2022/09/28 17:59:41;;;;;;;13.10;7.58;;;;;;;13.32;75.90;97308.77;4181606;83;20982;-83
2022/09/28 18:05:44;;;;;;;11.70;5.30;;;;;;;13.24;76.50;97311.53;4186824;83;20986;-81
2022/09/28 18:11:51;;;;;;;11.65;5.20;;;;;;;13.17;77.70;97313.70;4223897;83;21013;-82
2022/09/28 18:17:52;;;;;;;11.95;4.22;;;;;;;13.09;77.89;97315.83;4140913;85;21747;-82
2022/09/28 18:23:54;;;;;;;10.18;5.45;;;;;;;13.08;78.76;97330.00;4179879;83;21242;-82
2022/09/28 18:29:55;;;;;;;11.78;6.58;;;;;;;13.05;79.18;97330.27;4080602;83;10000110;-82
2022/09/28 18:35:57;;;;;;;15.93;9.13;;;;;;;13.00;79.70;97334.12;4188464;83;22098;-82
2022/09/28 18:41:58;;;;;;;17.55;9.80;;;;;;;12.94;79.76;97332.48;4183609;83;21569;-82
2022/09/28 18:47:59;;;;;;;19.60;10.28;;;;;;;12.79;79.85;97339.52;4193726;83;21031;-82
2022/09/28 18:54:05;;;;;;;16.77;9.53;;;;;;;12.69;80.65;97351.52;4198231;83;21003;-82
2022/09/28 19:00:11;;;;;;;23.30;12.90;;;;;;;12.68;81.70;97363.71;4176380;83;21110;-82
2022/09/28 19:06:14;;;;;;;51.20;26.50;;;;;;;12.67;82.21;97363.52;4185649;83;20984;-82
2022/09/28 19:12:16;;;;;;;49.38;23.32;;;;;;;12.52;82.36;97367.80;4194977;83;21449;-82
2022/09/28 19:18:18;;;;;;;41.10;19.80;;;;;;;12.47;82.93;97378.69;4194822;83;20984;-82
2022/09/28 19:24:20;;;;;;;35.20;15.90;;;;;;;12.46;83.15;97380.48;4099131;84;21022;-82
2022/09/28 19:30:21;;;;;;;33.23;13.90;;;;;;;12.44;83.46;97376.01;4136967;84;21008;-81
2022/09/28 19:36:27;;;;;;;23.95;10.93;;;;;;;12.38;84.01;97383.98;4147465;85;22001;-82
2022/09/28 19:42:29;;;;;;;20.52;10.60;;;;;;;12.44;84.35;97391.88;4131669;85;20980;-83
2022/09/28 19:48:32;;;;;;;17.12;8.43;;;;;;;12.39;84.38;97384.73;4186837;85;21000;-83
2022/09/28 19:54:34;;;;;;;9.30;4.58;;;;;;;12.36;85.07;97397.94;4141534;85;20951;-83
2022/09/28 20:00:36;;;;;;;6.45;3.33;;;;;;;12.26;85.61;97392.84;4132294;85;20976;-83
2022/09/28 20:06:38;;;;;;;6.08;3.33;;;;;;;12.24;86.27;97395.85;4141832;84;20996;-83
2022/09/28 20:12:41;;;;;;;7.42;3.50;;;;;;;12.25;86.97;97402.87;4189017;83;21082;-83
2022/09/28 20:18:51;;;;;;;6.75;4.00;;;;;;;12.27;87.71;97421.84;4198026;83;20948;-84
2022/09/28 20:24:56;;;;;;;6.97;3.70;;;;;;;12.29;88.17;97433.16;4210240;83;20959;-84
2022/09/28 20:31:21;;;;;;;5.83;3.75;;;;;;;12.29;88.83;97437.27;4181732;83;21029;-84
2022/09/28 20:37:25;;;;;;;9.60;4.03;;;;;;;12.25;89.32;97455.78;4096433;85;21504;-85
2022/09/28 20:43:33;;;;;;;8.50;3.80;;;;;;;12.17;90.31;97476.32;4020862;86;21032;-84
2022/09/28 20:49:34;;;;;;;8.30;3.12;;;;;;;12.10;90.86;97470.20;4148097;84;21047;-84
2022/09/28 20:55:38;;;;;;;7.70;3.62;;;;;;;11.99;91.77;97477.85;4112366;85;21059;-85
2022/09/28 21:01:39;;;;;;;9.65;4.00;;;;;;;11.93;92.36;97461.09;4092819;85;21040;-84
2022/09/28 21:07:41;;;;;;;6.92;4.35;;;;;;;11.88;92.35;97469.05;4146156;84;21034;-84
2022/09/28 21:13:45;;;;;;;4.47;2.40;;;;;;;11.79;93.34;97475.06;4061399;85;21682;-84
2022/09/28 21:19:47;;;;;;;5.35;2.87;;;;;;;11.80;92.96;97473.89;4171635;83;21055;-84
2022/09/28 21:26:08;;;;;;;5.75;3.20;;;;;;;11.77;93.61;97477.47;4165204;83;21091;-85
2022/09/28 21:32:11;;;;;;;7.00;3.52;;;;;;;11.76;94.22;97473.78;4128885;84;22132;-84
2022/09/28 21:38:14;;;;;;;7.35;3.62;;;;;;;11.74;95.17;97469.30;4171938;84;21511;-84
2022/09/28 21:44:16;;;;;;;4.92;2.70;;;;;;;11.75;95.80;97466.73;4221149;83;21023;-84
2022/09/28 21:50:22;;;;;;;4.85;2.65;;;;;;;11.76;96.36;97475.91;4194548;83;21597;-84
2022/09/28 21:56:24;;;;;;;5.95;2.87;;;;;;;11.79;96.31;97477.80;4168289;85;21440;-84
2022/09/28 22:02:26;;;;;;;5.03;3.05;;;;;;;11.65;96.43;97492.38;4170194;84;20973;-84
2022/09/28 22:08:29;;;;;;;4.95;2.47;;;;;;;11.59;96.60;97504.98;4168146;84;20984;-83
2022/09/28 22:14:32;;;;;;;5.17;2.58;;;;;;;11.55;97.48;97513.84;4176115;83;21011;-84
2022/09/28 22:27:11;;;;;;;2.83;1.40;;;;;;;11.59;98.81;97524.92;4178367;84;21586;-84
2022/09/28 22:33:22;;;;;;;4.47;1.90;;;;;;;11.62;99.08;97530.94;4165667;84;21003;-84
2022/09/28 22:39:32;;;;;;;5.20;1.40;;;;;;;11.68;99.49;97534.02;4138445;84;22018;-84
2022/09/28 22:46:10;;;;;;;2.52;1.55;;;;;;;11.72;99.54;97536.09;4142046;85;22001;-84
2022/09/28 22:52:12;;;;;;;5.67;1.47;;;;;;;11.73;100.00;97542.53;4071734;85;21129;-83
2022/09/28 22:58:13;;;;;;;2.47;1.52;;;;;;;11.79;100.00;97547.72;4083614;85;21034;-84
2022/09/28 23:04:19;;;;;;;4.28;1.55;;;;;;;11.82;100.00;97553.77;4150409;84;21848;-84
2022/09/28 23:10:23;;;;;;;4.22;1.67;;;;;;;11.85;100.00;97557.62;4144368;84;21029;-84
2022/09/28 23:16:26;;;;;;;2.80;1.22;;;;;;;11.72;100.00;97556.66;4160191;84;20972;-84
2022/09/28 23:22:32;;;;;;;4.60;1.82;;;;;;;11.73;100.00;97548.63;4091289;85;20980;-84
2022/09/28 23:28:34;;;;;;;7.00;3.33;;;;;;;11.72;100.00;97564.88;4022603;87;21019;-84
2022/09/28 23:34:36;;;;;;;7.03;3.10;;;;;;;11.71;100.00;97570.98;4074121;85;21521;-84
2022/09/28 23:40:40;;;;;;;3.98;2.60;;;;;;;11.71;100.00;97573.72;4096521;85;21042;-84
2022/09/28 23:46:42;;;;;;;5.83;2.87;;;;;;;11.69;100.00;97569.83;4146692;85;21002;-84
2022/09/28 23:52:43;;;;;;;5.17;2.37;;;;;;;11.68;100.00;97569.05;4086265;85;21043;-84
2022/09/28 23:58:44;;;;;;;2.62;2.08;;;;;;;11.57;100.00;97567.06;4060728;85;20986;-84
